sensor_id;sensor_type;location;lat;lon;timestamp;P1;durP1;ratioP1;P2;durP2;ratioP2
55663;SDS011;41540;57.880;12.164;2022-08-19T00:09:18;26.70;;;12.65;;
55663;SDS011;41540;57.880;12.164;2022-08-19T00:19:20;34.47;;;11.63;;
55663;SDS011;41540;57.880;12.164;2022-08-19T00:29:20;24.55;;;13.00;;
55663;SDS011;41540;57.880;12.164;2022-08-19T00:39:22;91.85;;;14.55;;
55663;SDS011;41540;57.880;12.164;2022-08-19T00:49:30;12.85;;;9.65;;
55663;SDS011;41540;57.880;12.164;2022-08-19T00:59:35;9.30;;;8.40;;
55663;SDS011;41540;57.880;12.164;2022-08-19T01:09:39;7.43;;;6.82;;
55663;SDS011;41540;57.880;12.164;2022-08-19T01:19:40;63.60;;;11.75;;
55663;SDS011;41540;57.880;12.164;2022-08-19T01:29:42;85.68;;;11.57;;
55663;SDS011;41540;57.880;12.164;2022-08-19T01:39:45;8.43;;;7.73;;
55663;SDS011;41540;57.880;12.164;2022-08-19T01:49:45;8.38;;;7.68;;
55663;SDS011;41540;57.880;12.164;2022-08-19T01:59:46;9.88;;;8.95;;
55663;SDS011;41540;57.880;12.164;2022-08-19T02:09:47;33.33;;;10.73;;
55663;SDS011;41540;57.880;12.164;2022-08-19T02:19:48;10.75;;;9.40;;
55663;SDS011;41540;57.880;12.164;2022-08-19T02:29:49;15.83;;;11.17;;
55663;SDS011;41540;57.880;12.164;2022-08-19T02:39:50;44.75;;;14.60;;
55663;SDS011;41540;57.880;12.164;2022-08-19T02:49:50;32.75;;;13.45;;
55663;SDS011;41540;57.880;12.164;2022-08-19T02:59:51;366.00;;;27.88;;
55663;SDS011;41540;57.880;12.164;2022-08-19T03:09:52;16.88;;;11.70;;
55663;SDS011;41540;57.880;12.164;2022-08-19T03:19:52;20.08;;;14.02;;
55663;SDS011;41540;57.880;12.164;2022-08-19T03:29:53;78.78;;;15.45;;
55663;SDS011;41540;57.880;12.164;2022-08-19T03:39:53;16.48;;;13.52;;
55663;SDS011;41540;57.880;12.164;2022-08-19T03:49:54;48.70;;;14.27;;
55663;SDS011;41540;57.880;12.164;2022-08-19T03:59:54;13.02;;;11.80;;
55663;SDS011;41540;57.880;12.164;2022-08-19T04:09:54;12.77;;;11.60;;
55663;SDS011;41540;57.880;12.164;2022-08-19T04:19:55;78.47;;;15.95;;
55663;SDS011;41540;57.880;12.164;2022-08-19T04:29:55;25.58;;;13.40;;
55663;SDS011;41540;57.880;12.164;2022-08-19T04:39:56;170.70;;;24.00;;
55663;SDS011;41540;57.880;12.164;2022-08-19T04:50:35;136.63;;;22.10;;
55663;SDS011;41540;57.880;12.164;2022-08-19T05:00:37;63.83;;;18.70;;
55663;SDS011;41540;57.880;12.164;2022-08-19T05:20:39;78.32;;;16.58;;
55663;SDS011;41540;57.880;12.164;2022-08-19T05:30:58;44.72;;;14.65;;
55663;SDS011;41540;57.880;12.164;2022-08-19T05:40:58;132.48;;;16.63;;
55663;SDS011;41540;57.880;12.164;2022-08-19T05:51:02;215.52;;;21.15;;
55663;SDS011;41540;57.880;12.164;2022-08-19T06:01:08;44.67;;;12.88;;
55663;SDS011;41540;57.880;12.164;2022-08-19T06:11:19;26.55;;;10.48;;
55663;SDS011;41540;57.880;12.164;2022-08-19T06:21:22;19.80;;;9.32;;
55663;SDS011;41540;57.880;12.164;2022-08-19T06:31:27;11.63;;;8.13;;
55663;SDS011;41540;57.880;12.164;2022-08-19T06:41:29;7.37;;;6.67;;
55663;SDS011;41540;57.880;12.164;2022-08-19T06:51:30;10.77;;;7.97;;
55663;SDS011;41540;57.880;12.164;2022-08-19T07:01:39;9.17;;;8.27;;
55663;SDS011;41540;57.880;12.164;2022-08-19T07:11:49;9.35;;;7.75;;
55663;SDS011;41540;57.880;12.164;2022-08-19T07:21:52;10.82;;;9.20;;
55663;SDS011;41540;57.880;12.164;2022-08-19T07:31:54;12.02;;;10.82;;
55663;SDS011;41540;57.880;12.164;2022-08-19T07:41:59;10.35;;;9.32;;
55663;SDS011;41540;57.880;12.164;2022-08-19T07:52:04;11.30;;;10.15;;
55663;SDS011;41540;57.880;12.164;2022-08-19T08:02:06;11.57;;;10.38;;
55663;SDS011;41540;57.880;12.164;2022-08-19T08:12:10;12.23;;;11.23;;
55663;SDS011;41540;57.880;12.164;2022-08-19T08:22:14;11.25;;;10.32;;
55663;SDS011;41540;57.880;12.164;2022-08-19T08:32:36;10.43;;;9.52;;
55663;SDS011;41540;57.880;12.164;2022-08-19T08:42:37;12.13;;;11.03;;
55663;SDS011;41540;57.880;12.164;2022-08-19T08:52:46;11.65;;;10.57;;
55663;SDS011;41540;57.880;12.164;2022-08-19T09:02:48;12.90;;;9.45;;
55663;SDS011;41540;57.880;12.164;2022-08-19T09:22:55;9.07;;;8.38;;
55663;SDS011;41540;57.880;12.164;2022-08-19T09:32:56;9.70;;;8.80;;
55663;SDS011;41540;57.880;12.164;2022-08-19T09:42:56;7.22;;;6.72;;
55663;SDS011;41540;57.880;12.164;2022-08-19T09:52:57;8.85;;;6.88;;
55663;SDS011;41540;57.880;12.164;2022-08-19T10:02:58;7.63;;;7.03;;
55663;SDS011;41540;57.880;12.164;2022-08-19T10:12:59;12.32;;;6.75;;
55663;SDS011;41540;57.880;12.164;2022-08-19T10:32:59;12.27;;;6.97;;
55663;SDS011;41540;57.880;12.164;2022-08-19T10:43:00;7.72;;;5.82;;
55663;SDS011;41540;57.880;12.164;2022-08-19T11:03:04;6.10;;;5.50;;
55663;SDS011;41540;57.880;12.164;2022-08-19T11:13:04;5.22;;;4.78;;
55663;SDS011;41540;57.880;12.164;2022-08-19T11:23:04;5.88;;;5.18;;
55663;SDS011;41540;57.880;12.164;2022-08-19T11:33:05;11.20;;;5.97;;
55663;SDS011;41540;57.880;12.164;2022-08-19T11:43:05;8.00;;;5.50;;
55663;SDS011;41540;57.880;12.164;2022-08-19T11:53:06;10.57;;;5.95;;
55663;SDS011;41540;57.880;12.164;2022-08-19T12:03:06;7.38;;;5.97;;
55663;SDS011;41540;57.880;12.164;2022-08-19T12:13:08;7.45;;;5.75;;
55663;SDS011;41540;57.880;12.164;2022-08-19T12:23:09;6.90;;;6.32;;
55663;SDS011;41540;57.880;12.164;2022-08-19T12:33:10;7.82;;;7.18;;
55663;SDS011;41540;57.880;12.164;2022-08-19T12:43:11;11.07;;;6.30;;
55663;SDS011;41540;57.880;12.164;2022-08-19T13:03:12;8.37;;;6.00;;
55663;SDS011;41540;57.880;12.164;2022-08-19T13:23:13;7.70;;;7.00;;
55663;SDS011;41540;57.880;12.164;2022-08-19T13:33:13;7.82;;;7.20;;
55663;SDS011;41540;57.880;12.164;2022-08-19T13:43:14;8.20;;;7.50;;
55663;SDS011;41540;57.880;12.164;2022-08-19T13:53:15;8.77;;;7.75;;
55663;SDS011;41540;57.880;12.164;2022-08-19T14:03:16;7.32;;;6.72;;
55663;SDS011;41540;57.880;12.164;2022-08-19T14:13:18;9.27;;;7.95;;
55663;SDS011;41540;57.880;12.164;2022-08-19T14:23:20;7.35;;;6.63;;
55663;SDS011;41540;57.880;12.164;2022-08-19T14:43:21;8.07;;;7.22;;
55663;SDS011;41540;57.880;12.164;2022-08-19T14:53:22;8.77;;;7.97;;
55663;SDS011;41540;57.880;12.164;2022-08-19T15:13:22;4.83;;;4.23;;
55663;SDS011;41540;57.880;12.164;2022-08-19T15:23:24;3.88;;;3.20;;
55663;SDS011;41540;57.880;12.164;2022-08-19T15:33:26;3.83;;;3.35;;
55663;SDS011;41540;57.880;12.164;2022-08-19T15:43:27;2.65;;;2.38;;
55663;SDS011;41540;57.880;12.164;2022-08-19T15:53:28;3.28;;;3.00;;
55663;SDS011;41540;57.880;12.164;2022-08-19T16:03:29;3.37;;;2.67;;
55663;SDS011;41540;57.880;12.164;2022-08-19T16:13:48;7.38;;;3.38;;
55663;SDS011;41540;57.880;12.164;2022-08-19T16:23:50;2.83;;;2.20;;
55663;SDS011;41540;57.880;12.164;2022-08-19T16:33:51;2.42;;;2.13;;
55663;SDS011;41540;57.880;12.164;2022-08-19T16:53:52;8.27;;;2.70;;
55663;SDS011;41540;57.880;12.164;2022-08-19T17:03:53;2.58;;;2.35;;
55663;SDS011;41540;57.880;12.164;2022-08-19T17:13:54;3.22;;;2.90;;
55663;SDS011;41540;57.880;12.164;2022-08-19T17:23:58;3.17;;;2.38;;
55663;SDS011;41540;57.880;12.164;2022-08-19T17:34:00;10.75;;;3.25;;
55663;SDS011;41540;57.880;12.164;2022-08-19T17:44:02;4.90;;;3.42;;
55663;SDS011;41540;57.880;12.164;2022-08-19T17:54:03;5.30;;;3.17;;
55663;SDS011;41540;57.880;12.164;2022-08-19T18:04:05;8.70;;;4.07;;
55663;SDS011;41540;57.880;12.164;2022-08-19T18:14:06;3.20;;;2.90;;
55663;SDS011;41540;57.880;12.164;2022-08-19T18:24:06;3.25;;;2.88;;
55663;SDS011;41540;57.880;12.164;2022-08-19T18:34:07;3.92;;;2.92;;
55663;SDS011;41540;57.880;12.164;2022-08-19T18:44:09;7.13;;;2.78;;
55663;SDS011;41540;57.880;12.164;2022-08-19T18:54:28;9.93;;;3.35;;
55663;SDS011;41540;57.880;12.164;2022-08-19T19:04:31;3.27;;;2.87;;
55663;SDS011;41540;57.880;12.164;2022-08-19T19:14:34;5.10;;;2.47;;
55663;SDS011;41540;57.880;12.164;2022-08-19T19:24:38;4.57;;;3.47;;
55663;SDS011;41540;57.880;12.164;2022-08-19T19:34:43;5.50;;;3.83;;
55663;SDS011;41540;57.880;12.164;2022-08-19T19:44:43;6.68;;;2.88;;
55663;SDS011;41540;57.880;12.164;2022-08-19T19:54:47;2.70;;;2.50;;
55663;SDS011;41540;57.880;12.164;2022-08-19T20:04:48;4.13;;;3.03;;
55663;SDS011;41540;57.880;12.164;2022-08-19T20:14:49;3.88;;;3.33;;
55663;SDS011;41540;57.880;12.164;2022-08-19T20:24:49;4.65;;;2.97;;
55663;SDS011;41540;57.880;12.164;2022-08-19T20:34:52;6.45;;;3.40;;
55663;SDS011;41540;57.880;12.164;2022-08-19T20:44:53;10.40;;;3.15;;
55663;SDS011;41540;57.880;12.164;2022-08-19T20:54:53;3.95;;;3.60;;
55663;SDS011;41540;57.880;12.164;2022-08-19T21:04:53;12.32;;;4.50;;
55663;SDS011;41540;57.880;12.164;2022-08-19T21:14:54;4.45;;;3.80;;
55663;SDS011;41540;57.880;12.164;2022-08-19T21:24:54;13.82;;;5.15;;
55663;SDS011;41540;57.880;12.164;2022-08-19T21:34:54;12.38;;;4.65;;
55663;SDS011;41540;57.880;12.164;2022-08-19T21:44:55;11.77;;;3.78;;
55663;SDS011;41540;57.880;12.164;2022-08-19T21:54:55;14.32;;;5.57;;
55663;SDS011;41540;57.880;12.164;2022-08-19T22:04:56;10.32;;;5.53;;
55663;SDS011;41540;57.880;12.164;2022-08-19T22:14:57;16.77;;;4.10;;
55663;SDS011;41540;57.880;12.164;2022-08-19T22:25:00;4.67;;;4.20;;
55663;SDS011;41540;57.880;12.164;2022-08-19T22:35:04;5.20;;;4.55;;
55663;SDS011;41540;57.880;12.164;2022-08-19T22:45:08;8.80;;;5.22;;
55663;SDS011;41540;57.880;12.164;2022-08-19T22:55:10;5.03;;;4.63;;
55663;SDS011;41540;57.880;12.164;2022-08-19T23:05:11;7.13;;;6.28;;
55663;SDS011;41540;57.880;12.164;2022-08-19T23:15:21;9.60;;;6.60;;
55663;SDS011;41540;57.880;12.164;2022-08-19T23:25:26;6.15;;;5.65;;
55663;SDS011;41540;57.880;12.164;2022-08-19T23:35:30;10.82;;;5.68;;
55663;SDS011;41540;57.880;12.164;2022-08-19T23:45:32;11.77;;;4.60;;
55663;SDS011;41540;57.880;12.164;2022-08-19T23:55:38;5.05;;;3.88;;
